createdAt,value
2018-02-27T00:00:37.550Z,-2.65
2018-02-27T00:01:37.542Z,-2.68
2018-02-27T00:02:37.543Z,-2.59
2018-02-27T00:03:37.676Z,-2.62
2018-02-27T00:04:37.540Z,-2.64
2018-02-27T00:05:37.571Z,-2.61
2018-02-27T00:06:37.641Z,-2.56
2018-02-27T00:07:37.571Z,-2.58
2018-02-27T00:08:37.549Z,-2.62
2018-02-27T00:09:37.570Z,-2.64
2018-02-27T00:10:37.547Z,-2.61
2018-02-27T00:11:37.586Z,-2.59
2018-02-27T00:12:37.544Z,-2.62
2018-02-27T00:13:37.549Z,-2.71
2018-02-27T00:14:37.557Z,-2.68
2018-02-27T00:15:37.551Z,-2.68
2018-02-27T00:16:37.566Z,-2.71
2018-02-27T00:17:37.564Z,-2.74
2018-02-27T00:18:37.553Z,-2.68
2018-02-27T00:19:37.546Z,-2.74
2018-02-27T00:20:37.638Z,-2.79
2018-02-27T00:21:37.562Z,-2.72
2018-02-27T00:22:37.567Z,-2.74
2018-02-27T00:23:37.567Z,-2.79
2018-02-27T00:24:37.569Z,-2.80
2018-02-27T00:25:37.580Z,-2.89
2018-02-27T00:26:37.577Z,-2.79
2018-02-27T00:27:37.566Z,-2.74
2018-02-27T00:28:37.563Z,-2.86
2018-02-27T00:29:37.575Z,-2.74
2018-02-27T00:30:37.576Z,-2.74
2018-02-27T00:31:37.568Z,-2.74
2018-02-27T00:32:37.567Z,-2.72
2018-02-27T00:33:37.577Z,-2.77
2018-02-27T00:34:37.590Z,-2.77
2018-02-27T00:35:37.576Z,-2.79
2018-02-27T00:36:37.586Z,-2.79
2018-02-27T00:37:37.585Z,-2.79
2018-02-27T00:38:37.593Z,-2.72
2018-02-27T00:39:37.596Z,-2.86
2018-02-27T00:40:37.597Z,-2.94
2018-02-27T00:41:37.586Z,-2.90
2018-02-27T00:42:37.590Z,-2.86
2018-02-27T00:43:37.593Z,-2.90
2018-02-27T00:44:37.616Z,-2.90
2018-02-27T00:45:37.581Z,-2.86
2018-02-27T00:46:38.321Z,-2.90
2018-02-27T00:47:37.601Z,-2.94
2018-02-27T00:48:37.607Z,-2.93
2018-02-27T00:49:37.598Z,-2.98
2018-02-27T00:50:37.610Z,-2.89
2018-02-27T00:51:37.607Z,-2.86
2018-02-27T00:52:37.606Z,-2.93
2018-02-27T00:53:37.604Z,-2.90
2018-02-27T00:54:37.602Z,-2.95
2018-02-27T00:55:37.611Z,-2.94
2018-02-27T00:56:37.610Z,-2.97
2018-02-27T00:57:37.613Z,-2.90
2018-02-27T00:58:37.617Z,-2.90
2018-02-27T00:59:37.613Z,-2.94
2018-02-27T01:00:37.631Z,-2.97
2018-02-27T01:01:37.621Z,-2.97
2018-02-27T01:02:37.617Z,-2.97
2018-02-27T01:03:37.610Z,-3.01
2018-02-27T01:04:37.615Z,-3.04
2018-02-27T01:05:37.614Z,-3.02
2018-02-27T01:06:37.632Z,-3.00
2018-02-27T01:07:37.622Z,-2.94
2018-02-27T01:08:37.619Z,-2.95
2018-02-27T01:09:37.626Z,-3.00
2018-02-27T01:10:37.638Z,-3.05
2018-02-27T01:11:37.647Z,-3.08
2018-02-27T01:12:37.753Z,-3.08
2018-02-27T01:13:37.631Z,-3.07
2018-02-27T01:14:37.626Z,-3.10
2018-02-27T01:15:37.629Z,-3.08
2018-02-27T01:16:37.636Z,-3.10
2018-02-27T01:17:37.642Z,-3.08
2018-02-27T01:18:37.649Z,-3.15
2018-02-27T01:19:37.644Z,-3.13
2018-02-27T01:20:37.638Z,-3.13
2018-02-27T01:21:37.647Z,-3.13
2018-02-27T01:22:37.636Z,-3.21
2018-02-27T01:23:37.640Z,-3.22
2018-02-27T01:24:37.634Z,-3.21
2018-02-27T01:25:37.644Z,-3.25
2018-02-27T01:26:37.645Z,-3.21
2018-02-27T01:27:38.314Z,-3.19
2018-02-27T01:28:37.645Z,-3.18
2018-02-27T01:29:37.649Z,-3.23
2018-02-27T01:30:37.649Z,-3.15
2018-02-27T01:31:37.651Z,-3.22
2018-02-27T01:32:37.642Z,-3.22
2018-02-27T01:33:37.659Z,-3.21
2018-02-27T01:34:37.662Z,-3.21
2018-02-27T01:35:37.666Z,-3.21
2018-02-27T01:36:37.654Z,-3.16
2018-02-27T01:37:37.663Z,-3.21
2018-02-27T01:38:37.670Z,-3.23
2018-02-27T01:39:37.650Z,-3.30
2018-02-27T01:40:37.655Z,-3.23
2018-02-27T01:41:37.685Z,-3.28
2018-02-27T01:42:37.661Z,-3.31
2018-02-27T01:43:37.667Z,-3.28
2018-02-27T01:44:37.663Z,-3.22
2018-02-27T01:45:37.757Z,-3.31
2018-02-27T01:46:37.657Z,-3.31
2018-02-27T01:47:37.666Z,-3.30
2018-02-27T01:48:37.667Z,-3.34
2018-02-27T01:49:37.672Z,-3.30
2018-02-27T01:50:37.667Z,-3.37
2018-02-27T01:51:37.685Z,-3.37
2018-02-27T01:52:37.676Z,-3.43
2018-02-27T01:53:37.676Z,-3.36
2018-02-27T01:54:37.681Z,-3.41
2018-02-27T01:55:37.696Z,-3.37
2018-02-27T01:56:37.676Z,-3.43
2018-02-27T01:57:37.672Z,-3.46
2018-02-27T01:58:37.678Z,-3.49
2018-02-27T01:59:37.679Z,-3.46
2018-02-27T02:00:37.676Z,-3.44
2018-02-27T02:01:37.684Z,-3.40
2018-02-27T02:02:37.682Z,-3.44
2018-02-27T02:03:37.690Z,-3.43
2018-02-27T02:04:37.684Z,-3.47
2018-02-27T02:05:37.716Z,-3.44
2018-02-27T02:06:37.687Z,-3.46
2018-02-27T02:07:37.787Z,-3.49
2018-02-27T02:08:37.736Z,-3.51
2018-02-27T02:09:37.713Z,-3.39
2018-02-27T02:10:37.700Z,-3.40
2018-02-27T02:11:37.684Z,-3.43
2018-02-27T02:12:37.700Z,-3.44
2018-02-27T02:13:37.695Z,-3.37
2018-02-27T02:14:37.689Z,-3.41
2018-02-27T02:15:37.696Z,-3.40
2018-02-27T02:16:37.711Z,-3.46
2018-02-27T02:17:37.718Z,-3.44
2018-02-27T02:18:37.698Z,-3.47
2018-02-27T02:19:37.706Z,-3.43
2018-02-27T02:20:37.699Z,-3.41
2018-02-27T02:21:37.706Z,-3.46
2018-02-27T02:22:37.706Z,-3.58
2018-02-27T02:23:37.715Z,-3.47
2018-02-27T02:24:37.703Z,-3.51
2018-02-27T02:25:37.708Z,-3.46
2018-02-27T02:26:37.709Z,-3.51
2018-02-27T02:27:37.716Z,-3.47
2018-02-27T02:28:37.721Z,-3.54
2018-02-27T02:29:37.713Z,-3.47
2018-02-27T02:30:37.725Z,-3.43
2018-02-27T02:31:37.715Z,-3.52
2018-02-27T02:32:37.717Z,-3.49
2018-02-27T02:33:37.715Z,-3.55
2018-02-27T02:34:37.721Z,-3.52
2018-02-27T02:35:37.740Z,-3.46
2018-02-27T02:36:37.710Z,-3.46
2018-02-27T02:37:37.716Z,-3.55
2018-02-27T02:38:37.722Z,-3.57
2018-02-27T02:39:37.728Z,-3.55
2018-02-27T02:40:37.722Z,-3.64
2018-02-27T02:41:37.724Z,-3.61
2018-02-27T02:42:37.786Z,-3.61
2018-02-27T02:43:37.727Z,-3.65
2018-02-27T02:44:37.724Z,-3.61
2018-02-27T02:45:37.722Z,-3.61
2018-02-27T02:46:37.731Z,-3.59
2018-02-27T02:47:37.724Z,-3.64
2018-02-27T02:48:37.747Z,-3.65
2018-02-27T02:49:37.727Z,-3.64
2018-02-27T02:50:37.733Z,-3.70
2018-02-27T02:51:37.743Z,-3.74
2018-02-27T02:52:37.737Z,-3.76
2018-02-27T02:53:37.728Z,-3.74
2018-02-27T02:54:37.737Z,-3.77
2018-02-27T02:55:37.737Z,-3.77
2018-02-27T02:56:37.748Z,-3.69
2018-02-27T02:57:37.733Z,-3.80
2018-02-27T02:58:37.748Z,-3.72
2018-02-27T02:59:37.738Z,-3.80
2018-02-27T03:00:37.789Z,-3.74
2018-02-27T03:01:37.738Z,-3.81
2018-02-27T03:02:37.736Z,-3.64
2018-02-27T03:03:37.743Z,-3.69
2018-02-27T03:04:37.746Z,-3.74
2018-02-27T03:05:37.745Z,-3.81
2018-02-27T03:06:37.743Z,-3.80
2018-02-27T03:07:37.758Z,-3.80
2018-02-27T03:08:37.822Z,-3.77
2018-02-27T03:09:37.748Z,-3.80
2018-02-27T03:10:37.748Z,-3.83
2018-02-27T03:11:37.745Z,-3.77
2018-02-27T03:12:37.754Z,-3.77
2018-02-27T03:13:37.753Z,-3.88
2018-02-27T03:14:37.754Z,-3.86
2018-02-27T03:15:37.751Z,-3.86
2018-02-27T03:16:37.751Z,-3.88
2018-02-27T03:17:37.793Z,-3.94
2018-02-27T03:18:37.756Z,-3.94
2018-02-27T03:19:37.751Z,-3.92
2018-02-27T03:20:37.755Z,-3.94
2018-02-27T03:21:37.759Z,-3.94
2018-02-27T03:22:37.755Z,-3.97
2018-02-27T03:23:37.753Z,-3.95
2018-02-27T03:24:37.755Z,-3.91
2018-02-27T03:25:37.755Z,-3.89
2018-02-27T03:26:37.882Z,-3.95
2018-02-27T03:27:37.770Z,-4.01
2018-02-27T03:28:37.764Z,-3.94
2018-02-27T03:29:37.762Z,-3.94
2018-02-27T03:30:37.766Z,-3.94
2018-02-27T03:31:37.773Z,-4.01
2018-02-27T03:32:37.762Z,-3.92
2018-02-27T03:33:37.763Z,-4.02
2018-02-27T03:34:37.764Z,-3.97
2018-02-27T03:35:37.770Z,-4.04
2018-02-27T03:36:37.763Z,-4.04
2018-02-27T03:37:37.763Z,-3.86
2018-02-27T03:38:37.763Z,-3.98
2018-02-27T03:39:37.781Z,-4.04
2018-02-27T03:40:37.769Z,-3.99
2018-02-27T03:41:37.771Z,-3.99
2018-02-27T03:42:37.773Z,-4.12
2018-02-27T03:43:37.779Z,-3.97
2018-02-27T03:44:37.771Z,-4.02
2018-02-27T03:45:37.778Z,-4.09
2018-02-27T03:46:37.773Z,-3.95
2018-02-27T03:47:37.774Z,-4.02
2018-02-27T03:48:37.762Z,-4.06
2018-02-27T03:49:37.765Z,-4.04
2018-02-27T03:50:37.776Z,-3.98
2018-02-27T03:51:37.778Z,-4.06
2018-02-27T03:52:37.793Z,-4.02
2018-02-27T03:53:37.792Z,-4.02
2018-02-27T03:54:37.779Z,-4.10
2018-02-27T03:55:37.786Z,-4.07
2018-02-27T03:56:37.776Z,-4.15
2018-02-27T03:57:37.786Z,-4.16
2018-02-27T03:58:37.784Z,-4.17
2018-02-27T03:59:37.788Z,-4.16
2018-02-27T04:00:37.778Z,-4.15
2018-02-27T04:01:37.788Z,-4.07
2018-02-27T04:02:37.781Z,-4.10
2018-02-27T04:03:37.780Z,-4.17
2018-02-27T04:04:37.787Z,-4.23
2018-02-27T04:05:37.780Z,-4.26
2018-02-27T04:06:37.785Z,-4.16
2018-02-27T04:07:37.786Z,-4.27
2018-02-27T04:08:37.784Z,-4.23
2018-02-27T04:09:37.786Z,-4.22
2018-02-27T04:10:37.789Z,-4.27
2018-02-27T04:11:37.795Z,-4.23
2018-02-27T04:12:37.806Z,-4.22
2018-02-27T04:13:37.789Z,-4.22
2018-02-27T04:14:37.786Z,-4.23
2018-02-27T04:15:37.789Z,-4.26
2018-02-27T04:16:37.786Z,-4.26
2018-02-27T04:17:37.865Z,-4.27
2018-02-27T04:18:37.796Z,-4.26
2018-02-27T04:19:37.784Z,-4.26
2018-02-27T04:20:37.819Z,-4.20
2018-02-27T04:21:37.796Z,-4.23
2018-02-27T04:22:37.806Z,-4.26
2018-02-27T04:23:37.794Z,-4.37
2018-02-27T04:24:37.797Z,-4.36
2018-02-27T04:25:37.790Z,-4.36
2018-02-27T04:26:37.805Z,-4.31
2018-02-27T04:27:37.799Z,-4.27
2018-02-27T04:28:37.795Z,-4.30
2018-02-27T04:29:37.791Z,-4.33
2018-02-27T04:30:37.798Z,-4.27
2018-02-27T04:31:37.802Z,-4.33
2018-02-27T04:32:37.801Z,-4.30
2018-02-27T04:33:37.795Z,-4.38
2018-02-27T04:34:37.802Z,-4.33
2018-02-27T04:35:37.797Z,-4.28
2018-02-27T04:36:37.800Z,-4.31
2018-02-27T04:37:37.807Z,-4.38
2018-02-27T04:38:37.813Z,-4.36
2018-02-27T04:39:37.796Z,-4.34
2018-02-27T04:40:37.795Z,-4.40
2018-02-27T04:41:37.800Z,-4.41
2018-02-27T04:42:37.805Z,-4.38
2018-02-27T04:43:37.802Z,-4.36
2018-02-27T04:44:37.800Z,-4.37
2018-02-27T04:45:37.800Z,-4.48
2018-02-27T04:46:37.794Z,-4.49
2018-02-27T04:47:37.796Z,-4.44
2018-02-27T04:48:37.815Z,-4.41
2018-02-27T04:49:37.811Z,-4.36
2018-02-27T04:50:37.823Z,-4.44
2018-02-27T04:51:37.829Z,-4.37
2018-02-27T04:52:37.806Z,-4.46
2018-02-27T04:53:37.820Z,-4.44
2018-02-27T04:54:37.808Z,-4.44
2018-02-27T04:55:37.805Z,-4.48
2018-02-27T04:56:37.813Z,-4.49
2018-02-27T04:57:37.806Z,-4.54
2018-02-27T04:58:37.810Z,-4.51
2018-02-27T04:59:37.816Z,-4.46
2018-02-27T05:00:37.819Z,-4.48
2018-02-27T05:01:37.810Z,-4.51
2018-02-27T05:02:37.819Z,-4.48
2018-02-27T05:03:37.847Z,-4.49
2018-02-27T05:04:37.803Z,-4.49
2018-02-27T05:05:37.824Z,-4.49
2018-02-27T05:06:37.818Z,-4.51
2018-02-27T05:07:37.823Z,-4.49
2018-02-27T05:08:37.813Z,-4.52
2018-02-27T05:09:37.822Z,-4.51
2018-02-27T05:10:37.829Z,-4.55
2018-02-27T05:11:37.810Z,-4.51
2018-02-27T05:12:37.816Z,-4.59
2018-02-27T05:13:37.843Z,-4.52
2018-02-27T05:14:37.817Z,-4.56
2018-02-27T05:15:37.818Z,-4.59
2018-02-27T05:16:37.821Z,-4.54
2018-02-27T05:17:37.817Z,-4.65
2018-02-27T05:18:37.816Z,-4.65
2018-02-27T05:19:37.832Z,-4.62
2018-02-27T05:20:37.904Z,-4.62
2018-02-27T05:21:37.830Z,-4.62
2018-02-27T05:22:37.821Z,-4.55
2018-02-27T05:23:37.832Z,-4.56
2018-02-27T05:24:37.817Z,-4.58
2018-02-27T05:25:37.847Z,-4.67
2018-02-27T05:26:37.834Z,-4.66
2018-02-27T05:27:37.825Z,-4.74
2018-02-27T05:28:37.830Z,-4.63
2018-02-27T05:29:37.810Z,-4.66
2018-02-27T05:30:37.825Z,-4.62
2018-02-27T05:31:37.829Z,-4.62
2018-02-27T05:32:37.822Z,-4.63
2018-02-27T05:33:38.788Z,-4.69
2018-02-27T05:34:37.860Z,-4.69
2018-02-27T05:35:37.824Z,-4.76
2018-02-27T05:36:37.837Z,-4.72
2018-02-27T05:37:37.822Z,-4.76
2018-02-27T05:38:37.841Z,-4.76
2018-02-27T05:39:37.839Z,-4.76
2018-02-27T05:40:37.842Z,-4.66
2018-02-27T05:41:37.829Z,-4.72
2018-02-27T05:42:37.858Z,-4.74
2018-02-27T05:43:37.825Z,-4.73
2018-02-27T05:44:37.814Z,-4.74
2018-02-27T05:45:37.821Z,-4.77
2018-02-27T05:46:37.825Z,-4.76
2018-02-27T05:47:37.829Z,-4.74
2018-02-27T05:48:37.822Z,-4.70
2018-02-27T05:49:37.824Z,-4.74
2018-02-27T05:50:37.832Z,-4.72
2018-02-27T05:51:37.923Z,-4.77
2018-02-27T05:52:37.820Z,-4.72
2018-02-27T05:53:37.827Z,-4.69
2018-02-27T05:54:37.832Z,-4.67
2018-02-27T05:55:37.826Z,-4.52
2018-02-27T05:56:37.832Z,-4.67
2018-02-27T05:57:37.831Z,-4.67
2018-02-27T05:58:37.834Z,-4.51
2018-02-27T05:59:37.849Z,-4.58
2018-02-27T06:00:37.861Z,-4.59
2018-02-27T06:01:37.830Z,-4.59
2018-02-27T06:02:37.879Z,-4.62
2018-02-27T06:03:37.823Z,-4.73
2018-02-27T06:04:37.930Z,-4.63
2018-02-27T06:05:37.828Z,-4.69
2018-02-27T06:06:37.845Z,-4.70
2018-02-27T06:07:37.843Z,-4.74
2018-02-27T06:08:37.832Z,-4.65
2018-02-27T06:09:37.834Z,-4.58
2018-02-27T06:10:37.853Z,-4.62
2018-02-27T06:11:37.972Z,-4.54
2018-02-27T06:12:37.836Z,-4.52
2018-02-27T06:13:37.851Z,-4.51
2018-02-27T06:14:37.848Z,-4.54
2018-02-27T06:15:37.835Z,-4.51
2018-02-27T06:16:37.832Z,-4.40
2018-02-27T06:17:37.911Z,-4.37
2018-02-27T06:18:37.868Z,-4.26
2018-02-27T06:19:37.839Z,-4.26
2018-02-27T06:20:37.842Z,-4.22
2018-02-27T06:21:37.852Z,-4.31
2018-02-27T06:22:37.824Z,-4.33
2018-02-27T06:23:37.838Z,-4.37
2018-02-27T06:24:37.874Z,-4.38
2018-02-27T06:25:37.834Z,-4.34
2018-02-27T06:26:37.854Z,-4.38
2018-02-27T06:27:37.846Z,-4.40
2018-02-27T06:28:37.851Z,-4.51
2018-02-27T06:29:37.834Z,-4.49
2018-02-27T06:30:37.867Z,-4.55
2018-02-27T06:31:37.844Z,-4.54
2018-02-27T06:32:37.894Z,-4.36
2018-02-27T06:33:37.851Z,-4.37
2018-02-27T06:34:37.843Z,-4.34
2018-02-27T06:35:37.842Z,-4.38
2018-02-27T06:36:37.877Z,-4.45
2018-02-27T06:37:37.850Z,-4.49
2018-02-27T06:38:37.851Z,-4.46
2018-02-27T06:39:37.860Z,-4.36
2018-02-27T06:40:37.866Z,-4.40
2018-02-27T06:41:37.845Z,-4.44
2018-02-27T06:42:37.850Z,-4.45
2018-02-27T06:43:37.859Z,-4.48
2018-02-27T06:44:37.844Z,-4.48
2018-02-27T06:45:37.850Z,-4.38
2018-02-27T06:46:37.847Z,-4.38
2018-02-27T06:47:37.841Z,-4.34
2018-02-27T06:48:37.946Z,-4.38
2018-02-27T06:49:37.851Z,-4.34
2018-02-27T06:50:37.858Z,-4.37
2018-02-27T06:51:37.848Z,-4.31
2018-02-27T06:52:37.866Z,-4.36
2018-02-27T06:53:37.852Z,-4.27
2018-02-27T06:54:37.861Z,-4.28
2018-02-27T06:55:37.847Z,-4.26
2018-02-27T06:56:37.851Z,-4.26
2018-02-27T06:57:37.853Z,-4.26
2018-02-27T06:58:37.864Z,-4.22
2018-02-27T06:59:37.861Z,-4.15
2018-02-27T07:00:37.849Z,-4.09
2018-02-27T07:01:37.909Z,-4.13
2018-02-27T07:02:37.858Z,-4.09
2018-02-27T07:03:37.851Z,-4.12
2018-02-27T07:04:37.852Z,-4.12
2018-02-27T07:05:37.858Z,-4.01
2018-02-27T07:06:37.868Z,-3.98
2018-02-27T07:07:37.855Z,-4.04
2018-02-27T07:08:37.857Z,-4.06
2018-02-27T07:09:37.875Z,-4.04
2018-02-27T07:10:37.871Z,-3.94
2018-02-27T07:11:37.865Z,-3.95
2018-02-27T07:12:37.889Z,-3.92
2018-02-27T07:13:37.987Z,-3.97
2018-02-27T07:14:37.944Z,-3.92
2018-02-27T07:15:37.869Z,-3.94
2018-02-27T07:16:37.864Z,-3.97
2018-02-27T07:17:37.871Z,-3.95
2018-02-27T07:18:37.867Z,-3.91
2018-02-27T07:19:37.933Z,-3.88
2018-02-27T07:20:37.865Z,-3.98
2018-02-27T07:21:37.874Z,-3.97
2018-02-27T07:22:37.877Z,-3.88
2018-02-27T07:23:37.868Z,-3.97
2018-02-27T07:24:37.888Z,-3.80
2018-02-27T07:25:37.878Z,-3.81
2018-02-27T07:26:37.879Z,-3.70
2018-02-27T07:27:37.895Z,-3.65
2018-02-27T07:28:37.880Z,-3.57
2018-02-27T07:29:37.890Z,-3.54
2018-02-27T07:30:37.889Z,-3.52
2018-02-27T07:31:37.904Z,-3.55
2018-02-27T07:32:37.885Z,-3.49
2018-02-27T07:33:37.886Z,-3.41
2018-02-27T07:34:37.882Z,-3.57
2018-02-27T07:35:37.931Z,-3.47
2018-02-27T07:36:37.909Z,-3.54
2018-02-27T07:37:37.903Z,-3.49
2018-02-27T07:38:37.901Z,-3.51
2018-02-27T07:39:37.886Z,-3.43
2018-02-27T07:40:37.889Z,-3.46
2018-02-27T07:41:37.888Z,-3.40
2018-02-27T07:42:37.901Z,-3.36
2018-02-27T07:43:37.911Z,-3.30
2018-02-27T07:44:37.901Z,-3.18
2018-02-27T07:45:37.906Z,-3.15
2018-02-27T07:46:37.912Z,-3.23
2018-02-27T07:47:37.915Z,-3.28
2018-02-27T07:48:37.909Z,-3.16
2018-02-27T07:49:37.911Z,-3.13
2018-02-27T07:50:37.909Z,-3.16
2018-02-27T07:51:37.930Z,-3.08
2018-02-27T07:52:37.944Z,-2.93
2018-02-27T07:53:37.912Z,-2.94
2018-02-27T07:54:37.971Z,-2.66
2018-02-27T07:55:37.929Z,-2.59
2018-02-27T07:56:37.926Z,-2.38
2018-02-27T07:57:37.913Z,-2.33
2018-02-27T07:58:37.928Z,-2.10
2018-02-27T07:59:37.909Z,-2.07
2018-02-27T08:00:37.916Z,-1.89
2018-02-27T08:01:37.920Z,-1.68
2018-02-27T08:02:37.926Z,-1.43
2018-02-27T08:03:37.979Z,-1.44
2018-02-27T08:04:37.931Z,-1.43
2018-02-27T08:05:37.936Z,-1.68
2018-02-27T08:06:37.946Z,-1.61
2018-02-27T08:07:37.946Z,-1.70
2018-02-27T08:08:37.966Z,-1.72
2018-02-27T08:09:37.972Z,-1.68
2018-02-27T08:10:37.954Z,-1.89
2018-02-27T08:11:37.953Z,-1.89
2018-02-27T08:12:37.964Z,-1.89
2018-02-27T08:13:37.976Z,-1.85
2018-02-27T08:14:37.973Z,-1.83
2018-02-27T08:15:37.982Z,-1.88
2018-02-27T08:16:37.998Z,-1.98
2018-02-27T08:17:37.982Z,-1.90
2018-02-27T08:18:37.989Z,-1.93
2018-02-27T08:19:37.999Z,-2.06
2018-02-27T08:20:37.998Z,-2.11
2018-02-27T08:21:37.989Z,-2.06
2018-02-27T08:22:38.000Z,-1.82
2018-02-27T08:23:38.010Z,-1.38
2018-02-27T08:24:38.022Z,-0.96
2018-02-27T08:25:38.011Z,-0.52
2018-02-27T08:26:38.037Z,-0.31
2018-02-27T08:27:38.027Z,-0.08
2018-02-27T08:28:38.096Z,0.01
2018-02-27T08:29:38.059Z,0.08
2018-02-27T08:30:38.034Z,0.20
2018-02-27T08:31:38.040Z,0.43
2018-02-27T08:32:38.043Z,0.57
2018-02-27T08:33:38.045Z,0.62
2018-02-27T08:34:38.055Z,0.86
2018-02-27T08:35:38.117Z,0.74
2018-02-27T08:36:38.068Z,0.93
2018-02-27T08:37:38.087Z,0.95
2018-02-27T08:38:38.081Z,1.18
2018-02-27T08:39:38.110Z,1.31
2018-02-27T08:40:38.113Z,1.17
2018-02-27T08:41:38.113Z,1.29
2018-02-27T08:42:38.117Z,1.18
2018-02-27T08:43:38.124Z,1.28
2018-02-27T08:44:38.132Z,1.34
2018-02-27T08:45:38.149Z,1.57
2018-02-27T08:46:38.176Z,1.56
2018-02-27T08:47:38.166Z,1.68
2018-02-27T08:48:38.180Z,1.92
2018-02-27T08:49:38.191Z,2.22
2018-02-27T08:50:38.189Z,2.45
2018-02-27T08:51:38.195Z,2.59
2018-02-27T08:52:38.224Z,2.77
2018-02-27T08:53:38.214Z,2.92
2018-02-27T08:54:38.235Z,3.15
2018-02-27T08:55:38.237Z,3.31
2018-02-27T08:56:38.266Z,3.25
2018-02-27T08:57:38.298Z,3.04
2018-02-27T08:58:38.269Z,3.05
2018-02-27T08:59:38.391Z,3.28
2018-02-27T09:00:38.288Z,3.19
2018-02-27T09:01:38.298Z,3.23
2018-02-27T09:02:38.310Z,3.25
2018-02-27T09:03:38.348Z,3.25
2018-02-27T09:04:38.334Z,3.34
2018-02-27T09:05:38.377Z,3.37
2018-02-27T09:06:38.362Z,3.39
2018-02-27T09:07:38.388Z,3.52
2018-02-27T09:08:38.382Z,3.50
2018-02-27T09:09:38.393Z,3.68
2018-02-27T09:10:38.412Z,3.90
2018-02-27T09:11:38.427Z,3.96
2018-02-27T09:12:38.429Z,4.08
2018-02-27T09:13:38.438Z,4.11
2018-02-27T09:14:39.314Z,4.38
2018-02-27T09:15:38.471Z,4.47
2018-02-27T09:16:38.494Z,4.47
2018-02-27T09:17:38.493Z,4.67
2018-02-27T09:18:38.503Z,4.77
2018-02-27T09:19:38.527Z,5.04
2018-02-27T09:20:38.538Z,4.87
2018-02-27T09:21:38.546Z,5.04
2018-02-27T09:22:38.652Z,5.32
2018-02-27T09:23:38.566Z,5.41
2018-02-27T09:24:38.663Z,5.29
2018-02-27T09:25:38.583Z,4.84
2018-02-27T09:26:38.602Z,4.42
2018-02-27T09:27:38.616Z,3.88
2018-02-27T09:28:38.626Z,3.92
2018-02-27T09:29:38.662Z,4.25
2018-02-27T09:30:38.638Z,4.02
2018-02-27T09:31:38.705Z,4.04
2018-02-27T09:32:38.676Z,4.07
2018-02-27T09:33:38.676Z,3.71
2018-02-27T09:34:39.288Z,3.50
2018-02-27T09:35:38.700Z,3.31
2018-02-27T09:36:38.713Z,3.35
2018-02-27T09:37:38.723Z,3.60
2018-02-27T09:38:38.728Z,4.10
2018-02-27T09:39:38.744Z,3.75
2018-02-27T09:40:38.768Z,3.20
2018-02-27T09:41:38.765Z,2.94
2018-02-27T09:42:38.774Z,2.76
2018-02-27T09:43:38.784Z,2.69
2018-02-27T09:44:38.795Z,3.68
2018-02-27T09:45:38.845Z,3.63
2018-02-27T09:46:38.823Z,3.64
2018-02-27T09:47:38.830Z,3.28
2018-02-27T09:48:38.832Z,2.95
2018-02-27T09:49:38.840Z,2.81
2018-02-27T09:50:38.847Z,2.59
2018-02-27T09:51:38.858Z,2.97
2018-02-27T09:52:38.866Z,2.74
2018-02-27T09:53:38.877Z,2.63
2018-02-27T09:54:38.882Z,2.53
2018-02-27T09:55:38.886Z,2.38
2018-02-27T09:56:38.898Z,2.32
2018-02-27T09:57:38.909Z,2.33
2018-02-27T09:58:38.941Z,2.38
2018-02-27T09:59:38.918Z,2.38
2018-02-27T10:00:38.926Z,2.23
2018-02-27T10:01:38.934Z,1.92
2018-02-27T10:02:39.012Z,1.81
2018-02-27T10:03:38.954Z,1.86
2018-02-27T10:04:38.956Z,2.05
2018-02-27T10:05:38.958Z,2.33
2018-02-27T10:06:38.973Z,2.33
2018-02-27T10:07:38.984Z,2.47
2018-02-27T10:08:38.986Z,2.48
2018-02-27T10:09:39.039Z,2.33
2018-02-27T10:10:39.031Z,2.40
2018-02-27T10:11:38.997Z,2.36
2018-02-27T10:12:39.164Z,2.98
2018-02-27T10:14:39.060Z,5.48
2018-02-27T10:15:39.028Z,5.93
2018-02-27T10:16:39.023Z,5.33
2018-02-27T10:17:39.136Z,4.79
2018-02-27T10:18:39.056Z,4.68
2018-02-27T10:19:39.059Z,4.49
2018-02-27T10:20:39.063Z,4.25
2018-02-27T10:21:39.073Z,4.10
2018-02-27T10:22:39.077Z,3.96
2018-02-27T10:23:39.083Z,3.90
2018-02-27T10:24:39.089Z,3.60
2018-02-27T10:25:39.095Z,3.46
2018-02-27T10:26:39.112Z,3.30
2018-02-27T10:27:39.142Z,3.15
2018-02-27T10:28:39.121Z,3.02
2018-02-27T10:29:39.124Z,3.07
2018-02-27T10:30:39.200Z,2.99
2018-02-27T10:31:39.153Z,3.04
2018-02-27T10:32:39.149Z,3.33
2018-02-27T10:33:39.186Z,3.42
2018-02-27T10:34:39.189Z,3.07
2018-02-27T10:35:39.164Z,2.89
2018-02-27T10:36:39.178Z,3.34
2018-02-27T10:37:39.179Z,3.78
2018-02-27T10:38:39.194Z,3.70
2018-02-27T10:39:39.195Z,3.57
2018-02-27T10:40:39.249Z,3.50
2018-02-27T10:41:39.210Z,3.35
2018-02-27T10:42:39.221Z,3.25
2018-02-27T10:43:39.226Z,3.42
2018-02-27T10:44:39.233Z,3.41
2018-02-27T10:45:39.224Z,3.25
2018-02-27T10:46:39.251Z,3.04
2018-02-27T10:47:39.265Z,2.83
2018-02-27T10:48:39.282Z,2.83
2018-02-27T10:49:39.262Z,2.73
2018-02-27T10:50:39.276Z,2.86
2018-02-27T10:51:39.273Z,2.79
2018-02-27T10:52:39.280Z,2.68
2018-02-27T10:53:39.318Z,2.63
2018-02-27T10:54:39.302Z,2.32
2018-02-27T10:55:39.314Z,2.32
2018-02-27T10:56:39.315Z,2.07
2018-02-27T10:57:39.325Z,2.08
2018-02-27T10:58:39.325Z,2.05
2018-02-27T10:59:39.327Z,2.09
2018-02-27T11:00:39.334Z,2.12
2018-02-27T11:01:39.333Z,2.07
2018-02-27T11:02:39.379Z,2.12
2018-02-27T11:03:39.488Z,2.26
2018-02-27T11:04:39.396Z,2.53
2018-02-27T11:05:39.362Z,2.32
2018-02-27T11:06:39.371Z,2.22
2018-02-27T11:07:39.409Z,2.15
2018-02-27T11:08:39.373Z,2.20
2018-02-27T11:09:39.385Z,2.25
2018-02-27T11:10:39.386Z,2.22
2018-02-27T11:11:39.398Z,2.45
2018-02-27T11:12:39.451Z,2.44
2018-02-27T11:13:39.422Z,2.45
2018-02-27T11:14:39.424Z,2.48
2018-02-27T11:15:39.423Z,2.51
2018-02-27T11:16:39.473Z,2.40
2018-02-27T11:17:39.433Z,2.40
2018-02-27T11:18:39.434Z,2.37
2018-02-27T11:19:39.446Z,2.36
2018-02-27T11:20:39.442Z,2.37
2018-02-27T11:21:39.477Z,2.22
2018-02-27T11:22:39.463Z,2.29
2018-02-27T11:23:39.523Z,2.30
2018-02-27T11:24:39.510Z,2.25
2018-02-27T11:25:39.512Z,2.45
2018-02-27T11:26:39.527Z,2.38
2018-02-27T11:27:39.478Z,2.41
2018-02-27T11:28:39.514Z,2.26
2018-02-27T11:29:39.490Z,2.26
2018-02-27T11:30:39.496Z,2.18
2018-02-27T11:31:39.506Z,2.04
2018-02-27T11:32:39.544Z,2.00
2018-02-27T11:33:39.517Z,1.95
2018-02-27T11:34:39.519Z,1.86
2018-02-27T11:35:39.533Z,1.68
2018-02-27T11:36:39.539Z,1.57
2018-02-27T11:37:39.617Z,1.64
2018-02-27T11:38:39.538Z,1.67
2018-02-27T11:39:39.592Z,1.67
2018-02-27T11:40:39.550Z,1.72
2018-02-27T11:41:39.573Z,1.68
2018-02-27T11:42:39.606Z,1.67
2018-02-27T11:43:39.559Z,1.68
2018-02-27T11:44:39.581Z,1.70
2018-02-27T11:45:39.575Z,1.70
2018-02-27T11:46:39.588Z,1.88
2018-02-27T11:47:39.653Z,2.05
2018-02-27T11:48:39.606Z,2.41
2018-02-27T11:49:39.601Z,2.89
2018-02-27T11:50:39.598Z,3.28
2018-02-27T11:51:39.617Z,3.28
2018-02-27T11:52:39.609Z,3.13
2018-02-27T11:53:39.628Z,3.07
2018-02-27T11:54:39.617Z,2.97
2018-02-27T11:55:39.635Z,3.17
2018-02-27T11:56:39.668Z,3.70
2018-02-27T11:57:39.639Z,3.41
2018-02-27T11:58:39.647Z,3.19
2018-02-27T11:59:39.666Z,3.07
2018-02-27T12:00:39.671Z,2.80
2018-02-27T12:01:39.681Z,2.69
2018-02-27T12:02:39.669Z,2.63
2018-02-27T12:03:39.683Z,2.58
2018-02-27T12:04:39.676Z,2.47
2018-02-27T12:05:39.711Z,2.37
2018-02-27T12:06:39.705Z,2.37
2018-02-27T12:07:39.808Z,2.53
2018-02-27T12:08:39.718Z,3.12
2018-02-27T12:09:39.740Z,4.68
2018-02-27T12:10:39.728Z,5.17
2018-02-27T12:11:39.729Z,4.65
2018-02-27T12:12:39.740Z,4.25
2018-02-27T12:13:39.760Z,4.02
2018-02-27T12:14:39.738Z,3.99
2018-02-27T12:15:39.748Z,4.43
2018-02-27T12:16:39.751Z,4.11
2018-02-27T12:17:39.795Z,4.07
2018-02-27T12:18:39.759Z,4.71
2018-02-27T12:19:39.811Z,4.65
2018-02-27T12:20:39.812Z,4.51
2018-02-27T12:21:39.783Z,5.55
2018-02-27T12:22:39.791Z,6.50
2018-02-27T12:23:39.800Z,7.34
2018-02-27T12:24:39.807Z,8.06
2018-02-27T12:25:39.833Z,8.24
2018-02-27T12:26:39.852Z,8.60
2018-02-27T12:27:39.834Z,9.01
2018-02-27T12:28:39.846Z,9.34
2018-02-27T12:29:39.848Z,9.80
2018-02-27T12:30:39.893Z,10.36
2018-02-27T12:31:39.901Z,10.84
2018-02-27T12:32:39.874Z,11.02
2018-02-27T12:33:39.892Z,11.41
2018-02-27T12:34:39.895Z,11.30
2018-02-27T12:35:39.910Z,10.90
2018-02-27T12:36:39.924Z,11.17
2018-02-27T12:37:39.927Z,10.73
2018-02-27T12:38:39.940Z,10.86
2018-02-27T12:39:39.948Z,11.17
2018-02-27T12:40:39.953Z,11.23
2018-02-27T12:41:39.972Z,11.03
2018-02-27T12:42:39.985Z,11.03
2018-02-27T12:43:39.994Z,10.49
2018-02-27T12:44:40.009Z,9.34
2018-02-27T12:45:40.049Z,9.89
2018-02-27T12:46:40.033Z,10.25
2018-02-27T12:47:40.079Z,10.75
2018-02-27T12:48:40.062Z,11.01
2018-02-27T12:49:40.085Z,11.06
2018-02-27T12:50:40.084Z,11.66
2018-02-27T12:51:40.102Z,11.77
2018-02-27T12:52:40.103Z,10.39
2018-02-27T12:53:40.121Z,10.87
2018-02-27T12:54:40.134Z,11.74
2018-02-27T12:55:40.165Z,11.56
2018-02-27T12:56:40.160Z,9.96
2018-02-27T12:57:40.181Z,10.24
2018-02-27T12:58:40.175Z,10.07
2018-02-27T12:59:40.209Z,11.05
2018-02-27T13:00:40.206Z,12.08
2018-02-27T13:01:40.214Z,12.59